createdAt,value
2024-05-09T00:01:54.741Z,8.20
2024-05-09T00:04:24.656Z,8.30
2024-05-09T00:06:57.756Z,8.50
2024-05-09T00:09:27.764Z,8.60
2024-05-09T00:11:57.907Z,8.25
2024-05-09T00:14:29.079Z,8.60
2024-05-09T00:16:59.098Z,7.90
2024-05-09T00:19:29.175Z,8.15
2024-05-09T00:22:01.955Z,7.95
2024-05-09T00:24:32.182Z,7.95
2024-05-09T00:27:02.880Z,8.05
2024-05-09T00:29:33.499Z,8.82
2024-05-09T00:32:03.924Z,8.40
2024-05-09T00:34:34.434Z,7.55
2024-05-09T00:37:07.820Z,8.88
2024-05-09T00:39:37.911Z,9.02
2024-05-09T00:42:08.165Z,8.02
2024-05-09T00:44:38.653Z,8.40
2024-05-09T00:47:09.278Z,8.43
2024-05-09T00:49:39.988Z,8.35
2024-05-09T00:52:14.252Z,8.15
2024-05-09T00:54:44.216Z,8.52
2024-05-09T00:57:14.309Z,7.85
2024-05-09T00:59:44.542Z,8.10
2024-05-09T01:02:15.236Z,8.15
2024-05-09T01:04:45.891Z,8.30
2024-05-09T01:07:19.063Z,8.32
2024-05-09T01:09:49.000Z,7.82
2024-05-09T01:12:19.247Z,8.30
2024-05-09T01:14:49.874Z,8.63
2024-05-09T01:17:20.411Z,8.07
2024-05-09T01:19:50.756Z,7.72
2024-05-09T01:22:24.698Z,7.97
2024-05-09T01:24:57.703Z,8.40
2024-05-09T01:27:27.640Z,7.80
2024-05-09T01:29:58.009Z,7.63
2024-05-09T01:32:28.293Z,8.25
2024-05-09T01:34:58.294Z,7.80
2024-05-09T01:37:28.842Z,7.40
2024-05-09T01:40:01.676Z,7.95
2024-05-09T01:42:31.732Z,8.02
2024-05-09T01:45:01.832Z,7.55
2024-05-09T01:47:32.104Z,7.95
2024-05-09T01:50:02.195Z,7.53
2024-05-09T01:52:34.700Z,8.20
2024-05-09T01:55:07.828Z,7.47
2024-05-09T01:57:37.902Z,7.38
2024-05-09T02:00:10.046Z,7.07
2024-05-09T02:02:40.412Z,7.38
2024-05-09T02:05:10.989Z,7.85
2024-05-09T02:07:41.072Z,7.72
2024-05-09T02:10:16.708Z,7.25
2024-05-09T02:12:53.438Z,7.60
2024-05-09T02:15:23.533Z,8.52
2024-05-09T02:17:53.657Z,7.68
2024-05-09T02:20:30.715Z,8.00
2024-05-09T02:23:07.140Z,7.90
2024-05-09T02:25:41.252Z,7.63
2024-05-09T02:28:11.288Z,7.80
2024-05-09T02:30:42.562Z,8.30
2024-05-09T02:33:14.529Z,7.40
2024-05-09T02:35:45.295Z,7.93
2024-05-09T02:38:13.226Z,7.80
2024-05-09T02:40:46.570Z,7.82
2024-05-09T02:43:13.938Z,7.70
2024-05-09T02:45:44.368Z,8.18
2024-05-09T02:48:13.277Z,8.10
2024-05-09T02:50:46.743Z,7.93
2024-05-09T02:53:16.193Z,8.45
2024-05-09T02:55:49.200Z,8.27
2024-05-09T02:58:16.531Z,7.25
2024-05-09T03:00:46.756Z,7.93
2024-05-09T03:03:15.626Z,8.02
2024-05-09T03:05:46.494Z,8.48
2024-05-09T03:08:14.534Z,8.05
2024-05-09T03:10:45.038Z,7.60
2024-05-09T03:13:16.354Z,8.85
2024-05-09T03:15:46.953Z,8.55
2024-05-09T03:18:18.278Z,8.57
2024-05-09T03:20:45.844Z,8.48
2024-05-09T03:23:20.815Z,8.05
2024-05-09T03:25:48.270Z,8.57
2024-05-09T03:28:21.031Z,8.02
2024-05-09T03:30:48.451Z,8.32
2024-05-09T03:33:20.260Z,8.88
2024-05-09T03:35:48.963Z,8.60
2024-05-09T03:38:19.493Z,8.60
2024-05-09T03:40:50.595Z,9.13
2024-05-09T03:43:23.785Z,8.65
2024-05-09T03:45:53.909Z,8.98
2024-05-09T03:48:21.510Z,9.15
2024-05-09T03:50:52.095Z,8.48
2024-05-09T03:53:19.445Z,9.32
2024-05-09T03:55:49.571Z,8.85
2024-05-09T03:58:16.900Z,9.40
2024-05-09T04:00:49.522Z,9.50
2024-05-09T04:03:17.187Z,9.70
2024-05-09T04:05:47.726Z,10.07
2024-05-09T04:08:15.399Z,10.40
2024-05-09T04:10:46.046Z,9.57
2024-05-09T04:13:13.515Z,10.23
2024-05-09T04:15:44.327Z,9.80
2024-05-09T04:18:14.376Z,10.13
2024-05-09T04:20:44.840Z,10.02
2024-05-09T04:23:13.625Z,10.25
2024-05-09T04:25:46.026Z,10.40
2024-05-09T04:28:14.895Z,11.23
2024-05-09T04:30:45.382Z,9.95
2024-05-09T04:33:20.213Z,10.20
2024-05-09T04:35:49.761Z,10.48
2024-05-09T04:38:19.965Z,10.55
2024-05-09T04:40:47.515Z,9.75
2024-05-09T04:43:19.993Z,11.05
2024-05-09T04:45:47.746Z,10.73
2024-05-09T04:48:20.731Z,10.77
2024-05-09T04:50:48.289Z,10.57
2024-05-09T04:53:19.774Z,10.82
2024-05-09T04:55:47.180Z,10.93
2024-05-09T04:58:17.976Z,10.68
2024-05-09T05:00:45.796Z,10.85
2024-05-09T05:03:16.763Z,11.10
2024-05-09T05:05:47.524Z,11.00
2024-05-09T05:08:18.896Z,10.68
2024-05-09T05:10:47.852Z,9.77
2024-05-09T05:13:21.062Z,10.57
2024-05-09T05:15:49.959Z,10.32
2024-05-09T05:18:20.620Z,10.07
2024-05-09T05:20:51.143Z,11.13
2024-05-09T05:23:22.421Z,10.05
2024-05-09T05:25:50.871Z,10.60
2024-05-09T05:28:22.236Z,11.00
2024-05-09T05:30:50.075Z,11.20
2024-05-09T05:33:23.186Z,10.65
2024-05-09T05:35:53.906Z,10.90
2024-05-09T05:38:27.391Z,11.25
2024-05-09T05:40:56.659Z,10.77
2024-05-09T05:43:26.896Z,11.10
2024-05-09T05:45:54.487Z,10.90
2024-05-09T05:48:24.620Z,10.90
2024-05-09T05:50:54.726Z,10.95
2024-05-09T05:53:24.745Z,11.00
2024-05-09T05:55:52.381Z,11.07
2024-05-09T05:58:22.844Z,11.25
2024-05-09T06:00:53.404Z,10.90
2024-05-09T06:03:23.711Z,10.90
2024-05-09T06:05:51.007Z,11.52
2024-05-09T06:08:26.207Z,11.23
2024-05-09T06:10:55.759Z,10.98
2024-05-09T06:13:25.908Z,10.95
2024-05-09T06:15:53.000Z,11.05
2024-05-09T06:18:23.374Z,11.90
2024-05-09T06:20:51.107Z,11.63
2024-05-09T06:23:23.838Z,11.27
2024-05-09T06:25:51.163Z,11.23
2024-05-09T06:28:21.275Z,11.75
2024-05-09T06:30:48.413Z,11.32
2024-05-09T06:33:18.584Z,11.73
2024-05-09T06:35:46.830Z,11.27
2024-05-09T06:38:16.901Z,11.15
2024-05-09T06:40:47.186Z,10.43
2024-05-09T06:43:19.243Z,11.27
2024-05-09T06:45:48.426Z,11.95
2024-05-09T06:48:20.963Z,11.82
2024-05-09T06:50:49.042Z,10.57
2024-05-09T06:53:20.961Z,10.77
2024-05-09T06:55:50.998Z,9.48
2024-05-09T06:58:21.063Z,10.07
2024-05-09T07:00:48.392Z,8.50
2024-05-09T07:03:19.644Z,9.60
2024-05-09T07:05:48.785Z,8.70
2024-05-09T07:08:19.733Z,8.57
2024-05-09T07:10:48.441Z,8.65
2024-05-09T07:13:25.597Z,8.55
2024-05-09T07:15:58.612Z,8.02
2024-05-09T07:18:29.047Z,7.88
2024-05-09T07:20:56.314Z,7.15
2024-05-09T07:23:26.262Z,6.50
2024-05-09T07:25:53.493Z,5.78
2024-05-09T07:28:26.453Z,5.00
2024-05-09T07:30:53.692Z,5.53
2024-05-09T07:33:24.717Z,5.60
2024-05-09T07:35:52.474Z,5.97
2024-05-09T07:38:22.903Z,5.82
2024-05-09T07:40:50.323Z,6.10
2024-05-09T07:43:20.497Z,6.30
2024-05-09T07:45:54.099Z,5.97
2024-05-09T07:50:00.379Z,6.13
2024-05-09T07:53:51.175Z,6.10
2024-05-09T07:56:24.550Z,6.57
2024-05-09T07:58:54.386Z,7.22
2024-05-09T08:01:27.797Z,6.97
2024-05-09T08:03:55.370Z,6.43
2024-05-09T08:06:26.623Z,7.63
2024-05-09T08:08:54.117Z,8.07
2024-05-09T08:11:24.306Z,9.13
2024-05-09T08:13:51.663Z,9.80
2024-05-09T08:16:27.731Z,10.80
2024-05-09T08:18:55.244Z,12.00
2024-05-09T08:21:25.238Z,13.10
2024-05-09T08:23:53.736Z,13.02
2024-05-09T08:26:23.785Z,12.60
2024-05-09T08:28:51.248Z,12.07
2024-05-09T08:31:21.293Z,11.90
2024-05-09T08:33:52.026Z,11.55
2024-05-09T08:36:22.134Z,10.73
2024-05-09T08:38:49.303Z,10.63
2024-05-09T08:41:19.239Z,10.98
2024-05-09T08:43:46.543Z,10.70
2024-05-09T08:46:19.156Z,10.85
2024-05-09T08:48:48.859Z,9.98
2024-05-09T08:51:21.886Z,10.80
2024-05-09T08:53:49.116Z,9.68
2024-05-09T08:56:19.610Z,10.45
2024-05-09T08:58:47.592Z,9.82
2024-05-09T09:01:17.965Z,10.30
2024-05-09T09:03:45.641Z,9.90
2024-05-09T09:06:18.426Z,9.50
2024-05-09T09:08:49.153Z,9.70
2024-05-09T09:11:19.278Z,10.07
2024-05-09T09:13:46.475Z,9.80
2024-05-09T09:16:17.143Z,9.98
2024-05-09T09:18:45.243Z,9.60
2024-05-09T09:21:15.144Z,10.50
2024-05-09T09:23:42.285Z,10.30
2024-05-09T09:26:18.598Z,9.52
2024-05-09T09:28:45.805Z,9.55
2024-05-09T09:31:15.776Z,9.80
2024-05-09T09:33:43.235Z,9.02
2024-05-09T09:36:14.654Z,10.25
2024-05-09T09:38:42.664Z,9.65
2024-05-09T09:41:16.567Z,9.73
2024-05-09T09:43:44.529Z,9.55
2024-05-09T09:46:15.111Z,8.85
2024-05-09T09:48:43.358Z,9.95
2024-05-09T09:51:13.844Z,9.60
2024-05-09T09:53:43.192Z,9.20
2024-05-09T09:56:17.539Z,9.77
2024-05-09T09:58:46.034Z,10.20
2024-05-09T10:01:15.989Z,9.82
2024-05-09T10:03:45.836Z,9.10
2024-05-09T10:06:16.792Z,10.32
2024-05-09T10:08:45.653Z,10.25
2024-05-09T10:11:22.473Z,10.20
2024-05-09T10:13:51.667Z,10.10
2024-05-09T10:16:24.430Z,10.30
2024-05-09T10:18:52.443Z,10.55
2024-05-09T10:21:22.987Z,10.63
2024-05-09T10:24:00.103Z,10.68
2024-05-09T10:26:35.966Z,10.35
2024-05-09T10:29:11.486Z,10.93
2024-05-09T10:31:42.508Z,10.52
2024-05-09T10:34:17.980Z,9.70
2024-05-09T10:36:48.268Z,10.35
2024-05-09T10:39:16.033Z,10.75
2024-05-09T10:41:48.715Z,11.13
2024-05-09T10:44:16.578Z,10.75
2024-05-09T10:46:47.737Z,11.23
2024-05-09T10:49:15.466Z,11.13
2024-05-09T10:51:48.536Z,11.43
2024-05-09T10:54:16.137Z,10.73
2024-05-09T10:56:48.912Z,11.10
2024-05-09T10:59:16.398Z,11.10
2024-05-09T11:01:46.406Z,10.98
2024-05-09T11:04:14.698Z,10.07
2024-05-09T11:06:45.409Z,9.85
2024-05-09T11:09:13.201Z,9.82
2024-05-09T11:11:43.189Z,9.02
2024-05-09T11:14:16.599Z,9.07
2024-05-09T11:16:46.503Z,9.73
2024-05-09T11:19:14.106Z,8.90
2024-05-09T11:21:46.591Z,7.10
2024-05-09T11:24:13.875Z,8.18
2024-05-09T11:26:43.785Z,8.15
2024-05-09T11:29:11.183Z,8.65
2024-05-09T11:31:50.919Z,7.85
2024-05-09T11:34:18.373Z,8.10
2024-05-09T11:36:48.484Z,7.57
2024-05-09T11:39:16.302Z,8.20
2024-05-09T11:41:46.399Z,7.70
2024-05-09T11:44:13.563Z,7.65
2024-05-09T11:46:47.003Z,7.82
2024-05-09T11:49:17.126Z,8.27
2024-05-09T11:51:47.025Z,8.32
2024-05-09T11:54:15.410Z,7.63
2024-05-09T11:56:45.441Z,8.00
2024-05-09T11:59:12.591Z,7.70
2024-05-09T12:01:42.683Z,7.47
2024-05-09T12:04:10.287Z,7.35
2024-05-09T12:06:43.123Z,7.82
2024-05-09T12:09:10.298Z,8.27
2024-05-09T12:11:40.272Z,7.97
2024-05-09T12:14:08.592Z,8.32
2024-05-09T12:16:38.912Z,8.90
2024-05-09T12:19:06.374Z,9.95
2024-05-09T12:21:36.380Z,8.95
2024-05-09T12:24:06.521Z,9.05
2024-05-09T12:26:36.513Z,9.48
2024-05-09T12:29:03.861Z,9.95
2024-05-09T12:31:33.856Z,10.43
2024-05-09T12:34:01.384Z,10.82
2024-05-09T12:36:31.655Z,11.82
2024-05-09T12:38:59.108Z,12.25
2024-05-09T12:41:31.637Z,13.45
2024-05-09T12:43:58.747Z,13.70
2024-05-09T12:46:29.002Z,14.10
2024-05-09T12:48:56.601Z,14.35
2024-05-09T12:51:26.568Z,15.45
2024-05-09T12:53:53.707Z,15.13
2024-05-09T12:56:23.538Z,14.23
2024-05-09T12:58:53.956Z,14.65
2024-05-09T13:01:24.173Z,14.02
2024-05-09T13:03:51.672Z,13.38
2024-05-09T13:06:21.776Z,13.48
2024-05-09T13:08:48.926Z,12.00
2024-05-09T13:11:19.272Z,11.20
2024-05-09T13:13:46.418Z,11.32
2024-05-09T13:16:19.053Z,10.52
2024-05-09T13:18:46.327Z,10.25
2024-05-09T13:21:16.221Z,9.63
2024-05-09T13:23:43.403Z,9.73
2024-05-09T13:26:13.244Z,10.73
2024-05-09T13:28:40.466Z,10.80
2024-05-09T13:31:10.979Z,9.68
2024-05-09T13:33:41.166Z,10.35
2024-05-09T13:36:11.381Z,10.27
2024-05-09T13:38:38.527Z,9.40
2024-05-09T13:41:08.803Z,9.90
2024-05-09T13:43:36.066Z,10.27
2024-05-09T13:46:06.566Z,10.30
2024-05-09T13:48:34.842Z,9.15
2024-05-09T13:51:08.064Z,9.05
2024-05-09T13:53:35.459Z,8.93
2024-05-09T13:56:05.472Z,10.40
2024-05-09T13:58:33.012Z,9.85
2024-05-09T14:01:03.157Z,9.05
2024-05-09T14:03:30.945Z,10.68
2024-05-09T14:06:01.066Z,9.50
2024-05-09T14:08:30.921Z,9.25
2024-05-09T14:11:00.988Z,9.10
2024-05-09T14:13:28.317Z,10.40
2024-05-09T14:15:58.535Z,9.10
2024-05-09T14:18:25.995Z,8.52
2024-05-09T14:20:56.176Z,8.48
2024-05-09T14:23:23.374Z,8.75
2024-05-09T14:25:56.194Z,9.00
2024-05-09T14:28:24.992Z,8.38
2024-05-09T14:30:56.959Z,8.65
2024-05-09T14:33:27.368Z,8.52
2024-05-09T14:35:57.540Z,8.00
2024-05-09T14:38:25.217Z,7.90
2024-05-09T14:40:58.196Z,7.70
2024-05-09T14:43:25.876Z,7.65
2024-05-09T14:45:56.392Z,7.57
2024-05-09T14:48:23.976Z,6.75
2024-05-09T14:50:54.327Z,7.32
2024-05-09T14:53:23.862Z,6.50
2024-05-09T14:55:53.932Z,6.05
2024-05-09T14:58:24.529Z,6.18
2024-05-09T15:00:54.683Z,6.30
2024-05-09T15:03:22.797Z,6.40
2024-05-09T15:05:53.444Z,6.43
2024-05-09T15:08:20.675Z,6.70
2024-05-09T15:10:51.444Z,6.00
2024-05-09T15:13:19.170Z,6.20
2024-05-09T15:15:52.490Z,6.70
2024-05-09T15:18:19.909Z,6.95
2024-05-09T15:20:50.700Z,5.95
2024-05-09T15:23:18.102Z,5.97
2024-05-09T15:25:48.375Z,6.40
2024-05-09T15:28:16.018Z,6.20
2024-05-09T15:30:46.997Z,6.40
2024-05-09T15:33:17.807Z,6.20
2024-05-09T15:35:48.253Z,6.30
2024-05-09T15:38:16.396Z,6.50
2024-05-09T15:40:47.206Z,5.95
2024-05-09T15:43:14.818Z,5.80
2024-05-09T15:45:45.318Z,5.72
2024-05-09T15:48:12.638Z,5.95
2024-05-09T15:50:45.612Z,5.40
2024-05-09T15:53:13.555Z,5.80
2024-05-09T15:55:43.994Z,5.53
2024-05-09T15:58:11.617Z,5.40
2024-05-09T16:00:43.618Z,5.15
2024-05-09T16:03:13.874Z,5.32
2024-05-09T16:05:48.175Z,5.22
2024-05-09T16:08:16.032Z,5.50
2024-05-09T16:10:47.025Z,5.32
2024-05-09T16:13:15.204Z,5.45
2024-05-09T16:15:46.507Z,5.57
2024-05-09T16:18:13.954Z,5.25
2024-05-09T16:20:49.392Z,5.82
2024-05-09T16:23:17.910Z,5.65
2024-05-09T16:25:48.959Z,5.53
2024-05-09T16:28:16.945Z,5.35
2024-05-09T16:30:47.192Z,5.28
2024-05-09T16:33:14.743Z,5.65
2024-05-09T16:35:47.586Z,5.57
2024-05-09T16:38:15.325Z,5.32
2024-05-09T16:40:45.468Z,5.72
2024-05-09T16:43:13.576Z,5.38
2024-05-09T16:45:45.179Z,5.32
2024-05-09T16:48:13.435Z,5.68
2024-05-09T16:50:43.752Z,5.50
2024-05-09T16:53:14.102Z,5.50
2024-05-09T16:55:44.130Z,6.35
2024-05-09T16:58:12.633Z,6.20
2024-05-09T17:00:44.206Z,5.95
2024-05-09T17:03:14.843Z,6.30
2024-05-09T17:05:47.240Z,6.22
2024-05-09T17:08:28.698Z,5.97
2024-05-09T17:10:56.372Z,6.20
2024-05-09T17:13:26.875Z,6.30
2024-05-09T17:15:58.246Z,6.90
2024-05-09T17:18:28.377Z,6.97
2024-05-09T17:20:55.718Z,6.88
2024-05-09T17:23:29.217Z,6.13
2024-05-09T17:25:56.974Z,6.65
2024-05-09T17:28:28.111Z,6.53
2024-05-09T17:30:55.623Z,6.47
2024-05-09T17:33:25.688Z,5.95
2024-05-09T17:35:53.170Z,5.72
2024-05-09T17:38:24.528Z,5.78
2024-05-09T17:40:55.265Z,5.88
2024-05-09T17:43:25.749Z,5.90
2024-05-09T17:45:53.714Z,5.55
2024-05-09T17:48:24.197Z,5.78
2024-05-09T17:50:54.662Z,5.88
2024-05-09T17:53:22.111Z,5.60
2024-05-09T17:55:54.130Z,6.32
2024-05-09T17:58:24.134Z,6.60
2024-05-09T18:00:54.767Z,6.03
2024-05-09T18:03:23.839Z,5.85
2024-05-09T18:05:54.204Z,6.13
2024-05-09T18:08:21.817Z,6.10
2024-05-09T18:10:54.069Z,6.32
2024-05-09T18:13:26.523Z,6.07
2024-05-09T18:15:56.564Z,6.35
2024-05-09T18:18:23.887Z,6.55
2024-05-09T18:20:54.103Z,6.28
2024-05-09T18:23:22.508Z,6.75
2024-05-09T18:25:55.178Z,6.50
2024-05-09T18:28:25.530Z,6.53
2024-05-09T18:30:55.821Z,6.50
2024-05-09T18:33:25.000Z,5.75
2024-05-09T18:35:55.104Z,6.03
2024-05-09T18:38:27.121Z,6.15
2024-05-09T18:40:57.395Z,6.28
2024-05-09T18:43:34.757Z,6.50
2024-05-09T18:46:08.643Z,6.38
2024-05-09T18:48:36.131Z,6.50
2024-05-09T18:51:06.250Z,6.22
2024-05-09T18:53:33.864Z,6.25
2024-05-09T18:56:05.014Z,6.20
2024-05-09T18:58:36.080Z,5.82
2024-05-09T19:01:07.086Z,5.65
2024-05-09T19:03:35.867Z,5.88
2024-05-09T19:06:06.638Z,6.07
2024-05-09T19:08:34.033Z,6.20
2024-05-09T19:11:03.993Z,6.43
2024-05-09T19:13:31.785Z,5.80
2024-05-09T19:16:04.980Z,6.05
2024-05-09T19:18:32.982Z,6.28
2024-05-09T19:21:03.245Z,6.75
2024-05-09T19:23:35.273Z,6.32
2024-05-09T19:26:08.900Z,7.05
2024-05-09T19:28:36.459Z,6.70
2024-05-09T19:31:09.353Z,6.30
2024-05-09T19:33:38.724Z,6.78
2024-05-09T19:36:10.575Z,6.78
2024-05-09T19:38:38.238Z,6.88
2024-05-09T19:41:08.532Z,7.13
2024-05-09T19:43:36.230Z,7.13
2024-05-09T19:46:09.421Z,7.13
2024-05-09T19:48:39.622Z,7.13
2024-05-09T19:51:07.128Z,8.02
2024-05-09T19:53:36.966Z,7.60
2024-05-09T19:56:04.474Z,7.72
2024-05-09T19:58:35.657Z,8.48
2024-05-09T20:01:06.006Z,8.00
2024-05-09T20:03:37.682Z,8.13
2024-05-09T20:06:05.651Z,7.60
2024-05-09T20:08:36.024Z,7.88
2024-05-09T20:11:03.564Z,7.97
2024-05-09T20:13:34.674Z,8.48
2024-05-09T20:16:02.172Z,11.15
2024-05-09T20:18:36.820Z,9.02
2024-05-09T20:21:04.449Z,8.20
2024-05-09T20:23:35.225Z,7.45
2024-05-09T20:26:02.965Z,8.23
2024-05-09T20:28:33.257Z,8.38
2024-05-09T20:31:00.720Z,8.40
2024-05-09T20:33:31.666Z,8.75
2024-05-09T20:36:02.471Z,8.95
2024-05-09T20:38:32.770Z,8.52
2024-05-09T20:41:00.039Z,8.75
2024-05-09T20:43:29.931Z,8.38
2024-05-09T20:45:57.464Z,8.35
2024-05-09T20:48:29.357Z,10.65
2024-05-09T20:50:56.613Z,11.18
2024-05-09T20:53:30.188Z,10.05
2024-05-09T20:55:57.582Z,9.93
2024-05-09T20:58:27.754Z,9.30
2024-05-09T21:00:55.314Z,9.18
2024-05-09T21:03:25.386Z,8.52
2024-05-09T21:05:52.730Z,9.52
2024-05-09T21:08:23.837Z,9.27
2024-05-09T21:10:54.154Z,8.73
2024-05-09T21:13:24.475Z,9.07
2024-05-09T21:15:52.018Z,8.60
2024-05-09T21:18:22.236Z,8.95
2024-05-09T21:20:49.638Z,8.68
2024-05-09T21:23:19.682Z,8.57
2024-05-09T21:25:49.746Z,11.23
2024-05-09T21:28:19.891Z,11.23
2024-05-09T21:30:49.979Z,10.65
2024-05-09T21:33:17.615Z,10.73
2024-05-09T21:35:47.713Z,10.95
2024-05-09T21:38:15.518Z,10.70
2024-05-09T21:40:45.819Z,10.55
2024-05-09T21:43:13.401Z,9.93
2024-05-09T21:45:46.322Z,10.98
2024-05-09T21:48:13.925Z,11.93
2024-05-09T21:50:44.378Z,11.90
2024-05-09T21:53:12.067Z,11.55
2024-05-09T21:55:42.844Z,11.52
2024-05-09T21:58:10.978Z,11.60
2024-05-09T22:00:43.054Z,11.10
2024-05-09T22:03:13.350Z,10.32
2024-05-09T22:05:45.203Z,10.20
2024-05-09T22:08:12.860Z,9.80
2024-05-09T22:10:43.015Z,9.88
2024-05-09T22:13:10.666Z,9.65
2024-05-09T22:15:41.918Z,10.95
2024-05-09T22:18:10.478Z,10.05
2024-05-09T22:20:46.409Z,10.55
2024-05-09T22:23:14.333Z,9.80
2024-05-09T22:25:44.669Z,9.73
2024-05-09T22:28:13.463Z,9.80
2024-05-09T22:30:46.721Z,9.88
2024-05-09T22:33:15.558Z,9.80
2024-05-09T22:35:48.497Z,9.82
2024-05-09T22:38:15.947Z,10.45
2024-05-09T22:40:49.141Z,10.20
2024-05-09T22:43:18.801Z,11.55
2024-05-09T22:45:50.408Z,10.70
2024-05-09T22:48:18.430Z,11.63
2024-05-09T22:50:51.288Z,11.50
2024-05-09T22:53:18.687Z,11.57
2024-05-09T22:55:48.673Z,11.48
2024-05-09T22:58:16.041Z,12.23
2024-05-09T23:00:46.303Z,12.30
2024-05-09T23:03:16.113Z,12.32
2024-05-09T23:05:46.132Z,11.98
2024-05-09T23:08:16.662Z,12.82
2024-05-09T23:10:46.830Z,12.82
2024-05-09T23:13:14.203Z,12.52
2024-05-09T23:15:44.635Z,12.48
2024-05-09T23:18:12.292Z,13.00
2024-05-09T23:20:42.336Z,13.20
2024-05-09T23:23:11.408Z,11.85
2024-05-09T23:25:44.927Z,11.70
2024-05-09T23:28:12.427Z,11.75
2024-05-09T23:30:42.978Z,12.40
2024-05-09T23:33:11.283Z,12.52
2024-05-09T23:35:41.425Z,11.95
2024-05-09T23:38:08.853Z,13.60
2024-05-09T23:40:40.986Z,12.80
2024-05-09T23:43:12.997Z,12.30
2024-05-09T23:45:44.507Z,12.05
2024-05-09T23:48:12.225Z,11.90
2024-05-09T23:50:42.444Z,11.52
2024-05-09T23:53:10.638Z,11.82
2024-05-09T23:55:41.218Z,10.95
2024-05-09T23:58:08.847Z,11.73
